sensor_id;sensor_type;location;lat;lon;timestamp;P1;durP1;ratioP1;P2;durP2;ratioP2
10554;SDS011;5326;51.522;7.388;2022-12-11T00:01:29;59.73;;;28.43;;
10554;SDS011;5326;51.522;7.388;2022-12-11T00:03:56;57.00;;;27.47;;
10554;SDS011;5326;51.522;7.388;2022-12-11T00:06:22;54.43;;;27.27;;
10554;SDS011;5326;51.522;7.388;2022-12-11T00:08:50;60.47;;;28.50;;
10554;SDS011;5326;51.522;7.388;2022-12-11T00:11:19;62.63;;;27.40;;
10554;SDS011;5326;51.522;7.388;2022-12-11T00:13:46;63.50;;;27.93;;
10554;SDS011;5326;51.522;7.388;2022-12-11T00:16:13;68.87;;;29.73;;
10554;SDS011;5326;51.522;7.388;2022-12-11T00:18:40;60.83;;;27.13;;
10554;SDS011;5326;51.522;7.388;2022-12-11T00:21:08;59.17;;;27.43;;
10554;SDS011;5326;51.522;7.388;2022-12-11T00:23:38;50.37;;;25.70;;
10554;SDS011;5326;51.522;7.388;2022-12-11T00:26:06;54.63;;;24.73;;
10554;SDS011;5326;51.522;7.388;2022-12-11T00:28:33;60.07;;;27.37;;
10554;SDS011;5326;51.522;7.388;2022-12-11T00:31:04;57.77;;;27.90;;
10554;SDS011;5326;51.522;7.388;2022-12-11T00:33:32;57.60;;;26.90;;
10554;SDS011;5326;51.522;7.388;2022-12-11T00:35:58;55.03;;;25.63;;
10554;SDS011;5326;51.522;7.388;2022-12-11T00:38:25;61.57;;;27.23;;
10554;SDS011;5326;51.522;7.388;2022-12-11T00:40:56;63.90;;;27.10;;
10554;SDS011;5326;51.522;7.388;2022-12-11T00:43:24;58.27;;;26.77;;
10554;SDS011;5326;51.522;7.388;2022-12-11T00:45:50;60.77;;;27.07;;
10554;SDS011;5326;51.522;7.388;2022-12-11T00:48:17;55.93;;;26.77;;
10554;SDS011;5326;51.522;7.388;2022-12-11T00:50:44;59.13;;;26.10;;
10554;SDS011;5326;51.522;7.388;2022-12-11T00:53:11;57.53;;;25.03;;
10554;SDS011;5326;51.522;7.388;2022-12-11T00:55:38;50.73;;;23.27;;
10554;SDS011;5326;51.522;7.388;2022-12-11T00:58:06;51.30;;;22.80;;
10554;SDS011;5326;51.522;7.388;2022-12-11T01:00:33;50.60;;;23.43;;
10554;SDS011;5326;51.522;7.388;2022-12-11T01:03:00;55.53;;;22.97;;
10554;SDS011;5326;51.522;7.388;2022-12-11T01:05:27;51.33;;;22.97;;
10554;SDS011;5326;51.522;7.388;2022-12-11T01:07:53;46.30;;;22.63;;
10554;SDS011;5326;51.522;7.388;2022-12-11T01:10:20;53.20;;;23.70;;
10554;SDS011;5326;51.522;7.388;2022-12-11T01:15:22;56.47;;;24.37;;
10554;SDS011;5326;51.522;7.388;2022-12-11T01:17:50;49.33;;;22.27;;
10554;SDS011;5326;51.522;7.388;2022-12-11T01:20:17;55.60;;;23.20;;
10554;SDS011;5326;51.522;7.388;2022-12-11T01:22:45;53.43;;;23.43;;
10554;SDS011;5326;51.522;7.388;2022-12-11T01:25:11;54.60;;;23.23;;
10554;SDS011;5326;51.522;7.388;2022-12-11T01:27:38;50.23;;;23.47;;
10554;SDS011;5326;51.522;7.388;2022-12-11T01:30:06;49.47;;;21.80;;
10554;SDS011;5326;51.522;7.388;2022-12-11T01:32:34;54.40;;;23.17;;
10554;SDS011;5326;51.522;7.388;2022-12-11T01:35:02;51.97;;;24.47;;
10554;SDS011;5326;51.522;7.388;2022-12-11T01:37:30;53.37;;;24.03;;
10554;SDS011;5326;51.522;7.388;2022-12-11T01:39:57;49.07;;;22.60;;
10554;SDS011;5326;51.522;7.388;2022-12-11T01:42:23;45.70;;;23.00;;
10554;SDS011;5326;51.522;7.388;2022-12-11T01:47:17;44.37;;;22.43;;
10554;SDS011;5326;51.522;7.388;2022-12-11T01:49:43;45.60;;;22.10;;
10554;SDS011;5326;51.522;7.388;2022-12-11T01:52:11;46.40;;;22.50;;
10554;SDS011;5326;51.522;7.388;2022-12-11T01:54:41;49.20;;;21.87;;
10554;SDS011;5326;51.522;7.388;2022-12-11T01:57:08;49.87;;;22.23;;
10554;SDS011;5326;51.522;7.388;2022-12-11T01:59:37;51.13;;;24.30;;
10554;SDS011;5326;51.522;7.388;2022-12-11T02:04:45;59.20;;;26.10;;
10554;SDS011;5326;51.522;7.388;2022-12-11T02:07:12;64.47;;;26.40;;
10554;SDS011;5326;51.522;7.388;2022-12-11T02:09:39;62.20;;;24.90;;
10554;SDS011;5326;51.522;7.388;2022-12-11T02:14:41;58.80;;;26.07;;
10554;SDS011;5326;51.522;7.388;2022-12-11T02:17:25;62.40;;;26.83;;
10554;SDS011;5326;51.522;7.388;2022-12-11T02:20:17;62.63;;;26.70;;
10554;SDS011;5326;51.522;7.388;2022-12-11T02:28:46;62.20;;;27.27;;
10554;SDS011;5326;51.522;7.388;2022-12-11T02:31:20;67.13;;;27.83;;
10554;SDS011;5326;51.522;7.388;2022-12-11T02:33:58;76.80;;;30.63;;
10554;SDS011;5326;51.522;7.388;2022-12-11T02:36:27;64.63;;;28.47;;
10554;SDS011;5326;51.522;7.388;2022-12-11T02:38:57;69.13;;;28.53;;
10554;SDS011;5326;51.522;7.388;2022-12-11T02:41:26;64.87;;;28.10;;
10554;SDS011;5326;51.522;7.388;2022-12-11T02:43:55;70.60;;;28.10;;
10554;SDS011;5326;51.522;7.388;2022-12-11T02:46:22;78.20;;;31.70;;
10554;SDS011;5326;51.522;7.388;2022-12-11T02:48:50;66.33;;;27.00;;
10554;SDS011;5326;51.522;7.388;2022-12-11T02:51:18;71.10;;;29.13;;
10554;SDS011;5326;51.522;7.388;2022-12-11T02:53:49;74.83;;;29.83;;
10554;SDS011;5326;51.522;7.388;2022-12-11T02:56:19;74.17;;;29.87;;
10554;SDS011;5326;51.522;7.388;2022-12-11T02:58:49;72.07;;;28.17;;
10554;SDS011;5326;51.522;7.388;2022-12-11T03:01:24;68.47;;;28.90;;
10554;SDS011;5326;51.522;7.388;2022-12-11T03:03:52;77.80;;;29.83;;
10554;SDS011;5326;51.522;7.388;2022-12-11T03:06:20;76.53;;;30.90;;
10554;SDS011;5326;51.522;7.388;2022-12-11T03:08:50;81.30;;;30.60;;
10554;SDS011;5326;51.522;7.388;2022-12-11T03:11:17;73.60;;;29.90;;
10554;SDS011;5326;51.522;7.388;2022-12-11T03:13:43;75.63;;;28.30;;
10554;SDS011;5326;51.522;7.388;2022-12-11T03:18:51;70.30;;;29.27;;
10554;SDS011;5326;51.522;7.388;2022-12-11T03:22:08;73.00;;;30.23;;
10554;SDS011;5326;51.522;7.388;2022-12-11T03:27:26;69.23;;;28.63;;
10554;SDS011;5326;51.522;7.388;2022-12-11T03:29:57;76.67;;;29.63;;
10554;SDS011;5326;51.522;7.388;2022-12-11T03:32:27;80.27;;;29.23;;
10554;SDS011;5326;51.522;7.388;2022-12-11T03:35:02;73.83;;;29.40;;
10554;SDS011;5326;51.522;7.388;2022-12-11T03:37:37;71.97;;;30.87;;
10554;SDS011;5326;51.522;7.388;2022-12-11T03:40:06;79.63;;;30.50;;
10554;SDS011;5326;51.522;7.388;2022-12-11T03:42:37;77.30;;;29.23;;
10554;SDS011;5326;51.522;7.388;2022-12-11T03:45:04;71.67;;;30.10;;
10554;SDS011;5326;51.522;7.388;2022-12-11T03:47:32;69.37;;;28.30;;
10554;SDS011;5326;51.522;7.388;2022-12-11T03:49:58;70.03;;;28.90;;
10554;SDS011;5326;51.522;7.388;2022-12-11T03:52:26;65.83;;;28.60;;
10554;SDS011;5326;51.522;7.388;2022-12-11T03:54:55;72.47;;;29.90;;
10554;SDS011;5326;51.522;7.388;2022-12-11T03:57:25;72.93;;;29.40;;
10554;SDS011;5326;51.522;7.388;2022-12-11T03:59:55;67.97;;;28.83;;
10554;SDS011;5326;51.522;7.388;2022-12-11T04:02:22;63.00;;;28.33;;
10554;SDS011;5326;51.522;7.388;2022-12-11T04:04:48;60.00;;;27.37;;
10554;SDS011;5326;51.522;7.388;2022-12-11T04:07:15;59.53;;;25.67;;
10554;SDS011;5326;51.522;7.388;2022-12-11T04:09:42;57.13;;;24.87;;
10554;SDS011;5326;51.522;7.388;2022-12-11T04:12:08;46.43;;;22.47;;
10554;SDS011;5326;51.522;7.388;2022-12-11T04:14:35;45.53;;;23.30;;
10554;SDS011;5326;51.522;7.388;2022-12-11T04:17:20;44.83;;;21.10;;
10554;SDS011;5326;51.522;7.388;2022-12-11T04:20:06;43.33;;;20.37;;
10554;SDS011;5326;51.522;7.388;2022-12-11T04:22:51;43.47;;;21.10;;
10554;SDS011;5326;51.522;7.388;2022-12-11T04:25:36;48.43;;;22.23;;
10554;SDS011;5326;51.522;7.388;2022-12-11T04:28:03;47.10;;;21.53;;
10554;SDS011;5326;51.522;7.388;2022-12-11T04:30:30;45.40;;;21.73;;
10554;SDS011;5326;51.522;7.388;2022-12-11T04:32:59;42.93;;;21.20;;
10554;SDS011;5326;51.522;7.388;2022-12-11T04:35:26;51.20;;;23.10;;
10554;SDS011;5326;51.522;7.388;2022-12-11T04:37:53;47.67;;;22.00;;
10554;SDS011;5326;51.522;7.388;2022-12-11T04:40:19;47.50;;;22.73;;
10554;SDS011;5326;51.522;7.388;2022-12-11T04:42:46;48.77;;;23.43;;
10554;SDS011;5326;51.522;7.388;2022-12-11T04:45:13;50.03;;;23.07;;
10554;SDS011;5326;51.522;7.388;2022-12-11T04:47:40;47.80;;;22.77;;
10554;SDS011;5326;51.522;7.388;2022-12-11T04:50:08;45.43;;;21.77;;
10554;SDS011;5326;51.522;7.388;2022-12-11T04:52:35;44.60;;;21.90;;
10554;SDS011;5326;51.522;7.388;2022-12-11T04:55:05;47.80;;;23.33;;
10554;SDS011;5326;51.522;7.388;2022-12-11T04:57:33;47.13;;;23.23;;
10554;SDS011;5326;51.522;7.388;2022-12-11T05:00:00;51.03;;;23.50;;
10554;SDS011;5326;51.522;7.388;2022-12-11T05:02:27;45.53;;;22.43;;
10554;SDS011;5326;51.522;7.388;2022-12-11T05:04:53;46.97;;;22.13;;
10554;SDS011;5326;51.522;7.388;2022-12-11T05:07:20;42.70;;;21.43;;
10554;SDS011;5326;51.522;7.388;2022-12-11T05:09:46;42.73;;;21.43;;
10554;SDS011;5326;51.522;7.388;2022-12-11T05:12:13;41.10;;;20.20;;
10554;SDS011;5326;51.522;7.388;2022-12-11T05:14:40;41.60;;;21.27;;
10554;SDS011;5326;51.522;7.388;2022-12-11T05:17:06;40.53;;;21.70;;
10554;SDS011;5326;51.522;7.388;2022-12-11T05:19:33;45.30;;;21.97;;
10554;SDS011;5326;51.522;7.388;2022-12-11T05:22:00;44.27;;;22.23;;
10554;SDS011;5326;51.522;7.388;2022-12-11T05:24:27;42.10;;;21.03;;
10554;SDS011;5326;51.522;7.388;2022-12-11T05:26:54;40.90;;;20.97;;
10554;SDS011;5326;51.522;7.388;2022-12-11T05:29:20;36.23;;;19.43;;
10554;SDS011;5326;51.522;7.388;2022-12-11T05:31:47;41.77;;;20.43;;
10554;SDS011;5326;51.522;7.388;2022-12-11T05:34:14;42.27;;;19.80;;
10554;SDS011;5326;51.522;7.388;2022-12-11T05:36:41;36.57;;;18.87;;
10554;SDS011;5326;51.522;7.388;2022-12-11T05:39:07;34.93;;;17.63;;
10554;SDS011;5326;51.522;7.388;2022-12-11T05:41:35;34.87;;;18.13;;
10554;SDS011;5326;51.522;7.388;2022-12-11T05:44:01;38.03;;;19.83;;
10554;SDS011;5326;51.522;7.388;2022-12-11T05:46:28;41.70;;;19.80;;
10554;SDS011;5326;51.522;7.388;2022-12-11T05:48:57;36.10;;;19.07;;
10554;SDS011;5326;51.522;7.388;2022-12-11T05:51:26;36.87;;;18.20;;
10554;SDS011;5326;51.522;7.388;2022-12-11T05:53:54;42.00;;;20.17;;
10554;SDS011;5326;51.522;7.388;2022-12-11T05:56:22;37.63;;;19.23;;
10554;SDS011;5326;51.522;7.388;2022-12-11T05:58:51;38.20;;;19.30;;
10554;SDS011;5326;51.522;7.388;2022-12-11T06:01:26;35.00;;;19.13;;
10554;SDS011;5326;51.522;7.388;2022-12-11T06:03:58;36.10;;;18.53;;
10554;SDS011;5326;51.522;7.388;2022-12-11T06:06:26;37.23;;;18.87;;
10554;SDS011;5326;51.522;7.388;2022-12-11T06:08:54;37.37;;;18.97;;
10554;SDS011;5326;51.522;7.388;2022-12-11T06:11:22;39.73;;;19.30;;
10554;SDS011;5326;51.522;7.388;2022-12-11T06:13:49;36.50;;;19.00;;
10554;SDS011;5326;51.522;7.388;2022-12-11T06:16:16;40.47;;;19.40;;
10554;SDS011;5326;51.522;7.388;2022-12-11T06:18:43;36.83;;;19.37;;
10554;SDS011;5326;51.522;7.388;2022-12-11T06:21:11;34.93;;;19.10;;
10554;SDS011;5326;51.522;7.388;2022-12-11T06:23:42;33.47;;;17.77;;
10554;SDS011;5326;51.522;7.388;2022-12-11T06:26:10;37.43;;;19.27;;
10554;SDS011;5326;51.522;7.388;2022-12-11T06:28:37;38.53;;;19.27;;
10554;SDS011;5326;51.522;7.388;2022-12-11T06:31:04;38.83;;;19.77;;
10554;SDS011;5326;51.522;7.388;2022-12-11T06:33:31;36.00;;;18.40;;
10554;SDS011;5326;51.522;7.388;2022-12-11T06:36:05;37.60;;;18.43;;
10554;SDS011;5326;51.522;7.388;2022-12-11T06:38:33;42.17;;;21.57;;
10554;SDS011;5326;51.522;7.388;2022-12-11T06:41:01;36.70;;;20.70;;
10554;SDS011;5326;51.522;7.388;2022-12-11T06:43:33;40.33;;;20.23;;
10554;SDS011;5326;51.522;7.388;2022-12-11T06:46:06;35.43;;;18.13;;
10554;SDS011;5326;51.522;7.388;2022-12-11T06:48:35;36.97;;;18.67;;
10554;SDS011;5326;51.522;7.388;2022-12-11T06:51:05;33.67;;;17.77;;
10554;SDS011;5326;51.522;7.388;2022-12-11T06:53:33;38.53;;;20.10;;
10554;SDS011;5326;51.522;7.388;2022-12-11T06:56:03;40.00;;;20.20;;
10554;SDS011;5326;51.522;7.388;2022-12-11T06:58:32;35.50;;;17.37;;
10554;SDS011;5326;51.522;7.388;2022-12-11T07:00:59;33.83;;;18.47;;
10554;SDS011;5326;51.522;7.388;2022-12-11T07:03:27;37.03;;;19.00;;
10554;SDS011;5326;51.522;7.388;2022-12-11T07:05:58;39.00;;;18.97;;
10554;SDS011;5326;51.522;7.388;2022-12-11T07:08:27;36.90;;;19.73;;
10554;SDS011;5326;51.522;7.388;2022-12-11T07:10:54;35.40;;;18.20;;
10554;SDS011;5326;51.522;7.388;2022-12-11T07:13:21;36.37;;;18.70;;
10554;SDS011;5326;51.522;7.388;2022-12-11T07:15:47;40.37;;;19.70;;
10554;SDS011;5326;51.522;7.388;2022-12-11T07:18:14;37.40;;;19.50;;
10554;SDS011;5326;51.522;7.388;2022-12-11T07:20:40;36.67;;;19.17;;
10554;SDS011;5326;51.522;7.388;2022-12-11T07:23:07;32.27;;;18.43;;
10554;SDS011;5326;51.522;7.388;2022-12-11T07:25:35;37.90;;;19.97;;
10554;SDS011;5326;51.522;7.388;2022-12-11T07:28:02;37.63;;;19.57;;
10554;SDS011;5326;51.522;7.388;2022-12-11T07:30:29;36.00;;;19.50;;
10554;SDS011;5326;51.522;7.388;2022-12-11T07:32:56;37.77;;;19.87;;
10554;SDS011;5326;51.522;7.388;2022-12-11T07:35:22;40.17;;;20.33;;
10554;SDS011;5326;51.522;7.388;2022-12-11T07:37:49;38.50;;;19.53;;
10554;SDS011;5326;51.522;7.388;2022-12-11T07:40:16;37.93;;;19.20;;
10554;SDS011;5326;51.522;7.388;2022-12-11T07:42:42;38.57;;;20.50;;
10554;SDS011;5326;51.522;7.388;2022-12-11T07:45:11;36.80;;;19.47;;
10554;SDS011;5326;51.522;7.388;2022-12-11T07:47:38;36.17;;;18.87;;
10554;SDS011;5326;51.522;7.388;2022-12-11T07:50:05;37.30;;;18.33;;
10554;SDS011;5326;51.522;7.388;2022-12-11T07:52:32;41.37;;;20.57;;
10554;SDS011;5326;51.522;7.388;2022-12-11T07:54:59;39.57;;;20.50;;
10554;SDS011;5326;51.522;7.388;2022-12-11T07:57:26;38.10;;;20.57;;
10554;SDS011;5326;51.522;7.388;2022-12-11T07:59:53;36.70;;;18.73;;
10554;SDS011;5326;51.522;7.388;2022-12-11T08:02:20;34.90;;;18.70;;
10554;SDS011;5326;51.522;7.388;2022-12-11T08:04:47;30.20;;;17.73;;
10554;SDS011;5326;51.522;7.388;2022-12-11T08:07:15;30.70;;;17.40;;
10554;SDS011;5326;51.522;7.388;2022-12-11T08:09:41;31.30;;;18.40;;
10554;SDS011;5326;51.522;7.388;2022-12-11T08:12:08;33.33;;;18.57;;
10554;SDS011;5326;51.522;7.388;2022-12-11T08:14:34;33.30;;;19.30;;
10554;SDS011;5326;51.522;7.388;2022-12-11T08:17:01;30.23;;;18.47;;
10554;SDS011;5326;51.522;7.388;2022-12-11T08:19:28;32.53;;;17.80;;
10554;SDS011;5326;51.522;7.388;2022-12-11T08:21:54;32.10;;;18.17;;
10554;SDS011;5326;51.522;7.388;2022-12-11T08:24:21;32.67;;;19.40;;
10554;SDS011;5326;51.522;7.388;2022-12-11T08:26:47;28.57;;;17.13;;
10554;SDS011;5326;51.522;7.388;2022-12-11T08:29:14;28.67;;;16.70;;
10554;SDS011;5326;51.522;7.388;2022-12-11T08:31:40;31.43;;;18.37;;
10554;SDS011;5326;51.522;7.388;2022-12-11T08:34:07;28.63;;;16.77;;
10554;SDS011;5326;51.522;7.388;2022-12-11T08:36:34;28.30;;;17.47;;
10554;SDS011;5326;51.522;7.388;2022-12-11T08:39:00;28.53;;;16.90;;
10554;SDS011;5326;51.522;7.388;2022-12-11T08:41:28;24.57;;;15.80;;
10554;SDS011;5326;51.522;7.388;2022-12-11T08:43:56;25.17;;;15.87;;
10554;SDS011;5326;51.522;7.388;2022-12-11T08:46:24;23.83;;;14.70;;
10554;SDS011;5326;51.522;7.388;2022-12-11T08:48:54;25.70;;;15.80;;
10554;SDS011;5326;51.522;7.388;2022-12-11T08:51:22;26.23;;;15.17;;
10554;SDS011;5326;51.522;7.388;2022-12-11T08:53:49;24.80;;;14.77;;
10554;SDS011;5326;51.522;7.388;2022-12-11T08:56:18;22.63;;;14.67;;
10554;SDS011;5326;51.522;7.388;2022-12-11T08:58:45;25.50;;;15.33;;
10554;SDS011;5326;51.522;7.388;2022-12-11T09:01:17;21.43;;;14.30;;
10554;SDS011;5326;51.522;7.388;2022-12-11T09:03:50;31.20;;;19.60;;
10554;SDS011;5326;51.522;7.388;2022-12-11T09:06:18;31.13;;;19.40;;
10554;SDS011;5326;51.522;7.388;2022-12-11T09:08:47;23.33;;;15.60;;
10554;SDS011;5326;51.522;7.388;2022-12-11T09:11:22;24.10;;;15.83;;
10554;SDS011;5326;51.522;7.388;2022-12-11T09:13:51;23.97;;;14.87;;
10554;SDS011;5326;51.522;7.388;2022-12-11T09:16:19;23.63;;;13.87;;
10554;SDS011;5326;51.522;7.388;2022-12-11T09:18:48;21.57;;;13.27;;
10554;SDS011;5326;51.522;7.388;2022-12-11T09:21:17;22.63;;;14.50;;
10554;SDS011;5326;51.522;7.388;2022-12-11T09:23:46;23.33;;;15.63;;
10554;SDS011;5326;51.522;7.388;2022-12-11T09:26:13;21.50;;;13.60;;
10554;SDS011;5326;51.522;7.388;2022-12-11T09:28:41;22.30;;;13.73;;
10554;SDS011;5326;51.522;7.388;2022-12-11T09:31:13;22.33;;;14.13;;
10554;SDS011;5326;51.522;7.388;2022-12-11T09:33:44;23.13;;;14.03;;
10554;SDS011;5326;51.522;7.388;2022-12-11T09:36:11;25.13;;;14.40;;
10554;SDS011;5326;51.522;7.388;2022-12-11T09:38:38;24.87;;;14.63;;
10554;SDS011;5326;51.522;7.388;2022-12-11T09:41:28;22.00;;;13.83;;
10554;SDS011;5326;51.522;7.388;2022-12-11T09:46:28;23.17;;;14.97;;
10554;SDS011;5326;51.522;7.388;2022-12-11T09:48:59;25.73;;;15.20;;
10554;SDS011;5326;51.522;7.388;2022-12-11T09:51:44;29.10;;;15.53;;
10554;SDS011;5326;51.522;7.388;2022-12-11T09:54:13;21.50;;;14.70;;
10554;SDS011;5326;51.522;7.388;2022-12-11T10:07:31;28.70;;;16.03;;
10554;SDS011;5326;51.522;7.388;2022-12-11T10:10:32;24.90;;;15.40;;
10554;SDS011;5326;51.522;7.388;2022-12-11T10:16:19;26.60;;;15.73;;
10554;SDS011;5326;51.522;7.388;2022-12-11T10:18:58;25.43;;;15.97;;
10554;SDS011;5326;51.522;7.388;2022-12-11T10:21:24;24.43;;;15.40;;
10554;SDS011;5326;51.522;7.388;2022-12-11T10:23:55;23.70;;;14.93;;
10554;SDS011;5326;51.522;7.388;2022-12-11T10:26:26;24.13;;;14.53;;
10554;SDS011;5326;51.522;7.388;2022-12-11T10:28:56;25.70;;;15.37;;
10554;SDS011;5326;51.522;7.388;2022-12-11T10:36:28;21.37;;;14.63;;
10554;SDS011;5326;51.522;7.388;2022-12-11T10:38:56;26.47;;;16.47;;
10554;SDS011;5326;51.522;7.388;2022-12-11T10:41:23;22.93;;;14.67;;
10554;SDS011;5326;51.522;7.388;2022-12-11T10:44:25;24.90;;;15.77;;
10554;SDS011;5326;51.522;7.388;2022-12-11T10:47:04;22.40;;;12.93;;
10554;SDS011;5326;51.522;7.388;2022-12-11T10:49:33;20.70;;;13.43;;
10554;SDS011;5326;51.522;7.388;2022-12-11T10:52:08;23.63;;;14.17;;
10554;SDS011;5326;51.522;7.388;2022-12-11T10:54:39;21.77;;;14.13;;
10554;SDS011;5326;51.522;7.388;2022-12-11T10:57:08;39.30;;;23.47;;
10554;SDS011;5326;51.522;7.388;2022-12-11T10:59:37;27.87;;;17.07;;
10554;SDS011;5326;51.522;7.388;2022-12-11T11:02:14;23.07;;;14.97;;
10554;SDS011;5326;51.522;7.388;2022-12-11T11:05:11;22.80;;;14.13;;
10554;SDS011;5326;51.522;7.388;2022-12-11T11:07:39;23.90;;;14.70;;
10554;SDS011;5326;51.522;7.388;2022-12-11T11:12:43;25.10;;;13.53;;
10554;SDS011;5326;51.522;7.388;2022-12-11T11:17:54;17.07;;;11.30;;
10554;SDS011;5326;51.522;7.388;2022-12-11T11:20:26;18.70;;;11.63;;
10554;SDS011;5326;51.522;7.388;2022-12-11T11:23:01;15.80;;;10.83;;
10554;SDS011;5326;51.522;7.388;2022-12-11T11:25:34;16.33;;;11.13;;
10554;SDS011;5326;51.522;7.388;2022-12-11T11:28:12;18.30;;;11.67;;
10554;SDS011;5326;51.522;7.388;2022-12-11T11:30:56;20.07;;;13.00;;
10554;SDS011;5326;51.522;7.388;2022-12-11T11:33:27;18.80;;;13.03;;
10554;SDS011;5326;51.522;7.388;2022-12-11T11:35:58;20.03;;;12.17;;
10554;SDS011;5326;51.522;7.388;2022-12-11T11:44:15;21.20;;;14.03;;
10554;SDS011;5326;51.522;7.388;2022-12-11T11:46:40;22.10;;;14.20;;
10554;SDS011;5326;51.522;7.388;2022-12-11T11:49:20;24.37;;;14.90;;
10554;SDS011;5326;51.522;7.388;2022-12-11T11:55:02;48.23;;;28.07;;
10554;SDS011;5326;51.522;7.388;2022-12-11T11:57:46;22.43;;;14.70;;
10554;SDS011;5326;51.522;7.388;2022-12-11T12:00:16;20.57;;;13.27;;
10554;SDS011;5326;51.522;7.388;2022-12-11T12:02:48;22.67;;;13.77;;
10554;SDS011;5326;51.522;7.388;2022-12-11T12:05:24;23.33;;;15.07;;
10554;SDS011;5326;51.522;7.388;2022-12-11T12:16:56;25.57;;;14.17;;
10554;SDS011;5326;51.522;7.388;2022-12-11T12:19:42;21.07;;;12.80;;
10554;SDS011;5326;51.522;7.388;2022-12-11T12:22:15;27.53;;;15.30;;
10554;SDS011;5326;51.522;7.388;2022-12-11T12:27:23;24.03;;;13.60;;
10554;SDS011;5326;51.522;7.388;2022-12-11T12:30:19;25.07;;;12.37;;
10554;SDS011;5326;51.522;7.388;2022-12-11T12:35:37;19.07;;;12.17;;
10554;SDS011;5326;51.522;7.388;2022-12-11T12:46:01;23.87;;;14.07;;
10554;SDS011;5326;51.522;7.388;2022-12-11T12:48:32;22.80;;;13.83;;
10554;SDS011;5326;51.522;7.388;2022-12-11T12:50:59;23.03;;;14.00;;
10554;SDS011;5326;51.522;7.388;2022-12-11T12:53:26;21.83;;;13.97;;
10554;SDS011;5326;51.522;7.388;2022-12-11T12:55:54;20.90;;;13.23;;
10554;SDS011;5326;51.522;7.388;2022-12-11T13:01:05;24.03;;;15.10;;
10554;SDS011;5326;51.522;7.388;2022-12-11T13:03:36;30.23;;;16.17;;
10554;SDS011;5326;51.522;7.388;2022-12-11T13:09:09;25.83;;;16.13;;
10554;SDS011;5326;51.522;7.388;2022-12-11T13:11:38;29.33;;;16.93;;
10554;SDS011;5326;51.522;7.388;2022-12-11T13:14:06;27.70;;;15.37;;
10554;SDS011;5326;51.522;7.388;2022-12-11T13:16:49;29.43;;;16.63;;
10554;SDS011;5326;51.522;7.388;2022-12-11T13:21:57;25.40;;;15.27;;
10554;SDS011;5326;51.522;7.388;2022-12-11T13:27:22;26.37;;;16.10;;
10554;SDS011;5326;51.522;7.388;2022-12-11T13:30:03;25.20;;;15.63;;
10554;SDS011;5326;51.522;7.388;2022-12-11T13:32:30;35.07;;;17.17;;
10554;SDS011;5326;51.522;7.388;2022-12-11T13:35:03;27.97;;;15.37;;
10554;SDS011;5326;51.522;7.388;2022-12-11T13:37:43;25.23;;;15.70;;
10554;SDS011;5326;51.522;7.388;2022-12-11T13:40:21;20.40;;;13.80;;
10554;SDS011;5326;51.522;7.388;2022-12-11T13:45:47;19.63;;;12.80;;
10554;SDS011;5326;51.522;7.388;2022-12-11T13:48:21;22.07;;;14.33;;
10554;SDS011;5326;51.522;7.388;2022-12-11T13:50:49;21.77;;;12.80;;
10554;SDS011;5326;51.522;7.388;2022-12-11T13:53:17;20.97;;;13.00;;
10554;SDS011;5326;51.522;7.388;2022-12-11T13:55:53;18.20;;;12.00;;
10554;SDS011;5326;51.522;7.388;2022-12-11T13:58:24;22.07;;;13.67;;
10554;SDS011;5326;51.522;7.388;2022-12-11T14:03:40;19.37;;;13.10;;
10554;SDS011;5326;51.522;7.388;2022-12-11T14:06:12;21.53;;;13.47;;
10554;SDS011;5326;51.522;7.388;2022-12-11T14:08:44;18.90;;;12.27;;
10554;SDS011;5326;51.522;7.388;2022-12-11T14:11:17;20.57;;;12.30;;
10554;SDS011;5326;51.522;7.388;2022-12-11T14:13:53;18.87;;;12.27;;
10554;SDS011;5326;51.522;7.388;2022-12-11T14:16:21;18.23;;;12.73;;
10554;SDS011;5326;51.522;7.388;2022-12-11T14:18:49;21.33;;;12.37;;
10554;SDS011;5326;51.522;7.388;2022-12-11T14:21:21;21.57;;;13.17;;
10554;SDS011;5326;51.522;7.388;2022-12-11T14:23:50;16.77;;;11.37;;
10554;SDS011;5326;51.522;7.388;2022-12-11T14:26:25;20.87;;;12.50;;
10554;SDS011;5326;51.522;7.388;2022-12-11T14:28:53;19.17;;;12.00;;
10554;SDS011;5326;51.522;7.388;2022-12-11T14:31:28;19.47;;;12.57;;
10554;SDS011;5326;51.522;7.388;2022-12-11T14:33:59;17.43;;;11.90;;
10554;SDS011;5326;51.522;7.388;2022-12-11T14:36:30;18.53;;;12.17;;
10554;SDS011;5326;51.522;7.388;2022-12-11T14:39:03;20.40;;;13.00;;
10554;SDS011;5326;51.522;7.388;2022-12-11T14:41:35;20.97;;;13.00;;
10554;SDS011;5326;51.522;7.388;2022-12-11T14:44:06;18.87;;;12.40;;
10554;SDS011;5326;51.522;7.388;2022-12-11T14:51:49;23.50;;;13.37;;
10554;SDS011;5326;51.522;7.388;2022-12-11T14:54:25;18.20;;;12.03;;
10554;SDS011;5326;51.522;7.388;2022-12-11T14:56:54;19.93;;;12.60;;
10554;SDS011;5326;51.522;7.388;2022-12-11T14:59:22;22.87;;;13.63;;
10554;SDS011;5326;51.522;7.388;2022-12-11T15:01:58;20.13;;;13.13;;
10554;SDS011;5326;51.522;7.388;2022-12-11T15:04:31;22.53;;;13.13;;
10554;SDS011;5326;51.522;7.388;2022-12-11T15:06:58;22.53;;;13.63;;
10554;SDS011;5326;51.522;7.388;2022-12-11T15:11:52;21.53;;;13.00;;
10554;SDS011;5326;51.522;7.388;2022-12-11T15:14:21;20.63;;;13.57;;
10554;SDS011;5326;51.522;7.388;2022-12-11T15:16:49;22.47;;;14.10;;
10554;SDS011;5326;51.522;7.388;2022-12-11T15:19:21;21.83;;;14.30;;
10554;SDS011;5326;51.522;7.388;2022-12-11T15:21:54;24.17;;;13.67;;
10554;SDS011;5326;51.522;7.388;2022-12-11T15:24:29;21.27;;;14.17;;
10554;SDS011;5326;51.522;7.388;2022-12-11T15:26:59;24.13;;;15.37;;
10554;SDS011;5326;51.522;7.388;2022-12-11T15:34:41;25.73;;;15.33;;
10554;SDS011;5326;51.522;7.388;2022-12-11T15:37:25;25.03;;;16.33;;
10554;SDS011;5326;51.522;7.388;2022-12-11T15:39:55;24.30;;;16.70;;
10554;SDS011;5326;51.522;7.388;2022-12-11T15:42:24;23.13;;;15.90;;
10554;SDS011;5326;51.522;7.388;2022-12-11T15:45:05;23.13;;;14.90;;
10554;SDS011;5326;51.522;7.388;2022-12-11T15:47:35;24.27;;;15.17;;
10554;SDS011;5326;51.522;7.388;2022-12-11T15:50:10;22.07;;;14.10;;
10554;SDS011;5326;51.522;7.388;2022-12-11T15:52:38;21.67;;;14.87;;
10554;SDS011;5326;51.522;7.388;2022-12-11T15:55:05;23.37;;;15.63;;
10554;SDS011;5326;51.522;7.388;2022-12-11T15:57:31;23.53;;;14.77;;
10554;SDS011;5326;51.522;7.388;2022-12-11T15:59:59;22.53;;;14.43;;
10554;SDS011;5326;51.522;7.388;2022-12-11T16:02:26;23.33;;;14.77;;
10554;SDS011;5326;51.522;7.388;2022-12-11T16:04:53;21.43;;;14.67;;
10554;SDS011;5326;51.522;7.388;2022-12-11T16:07:23;22.83;;;13.97;;
10554;SDS011;5326;51.522;7.388;2022-12-11T16:09:54;20.93;;;13.67;;
10554;SDS011;5326;51.522;7.388;2022-12-11T16:12:21;25.23;;;14.50;;
10554;SDS011;5326;51.522;7.388;2022-12-11T16:14:48;23.30;;;14.93;;
10554;SDS011;5326;51.522;7.388;2022-12-11T16:17:14;21.43;;;14.63;;
10554;SDS011;5326;51.522;7.388;2022-12-11T16:19:41;23.53;;;14.40;;
10554;SDS011;5326;51.522;7.388;2022-12-11T16:22:09;23.43;;;14.83;;
10554;SDS011;5326;51.522;7.388;2022-12-11T16:24:37;21.60;;;13.97;;
10554;SDS011;5326;51.522;7.388;2022-12-11T16:27:04;23.60;;;15.40;;
10554;SDS011;5326;51.522;7.388;2022-12-11T16:29:32;22.00;;;13.90;;
10554;SDS011;5326;51.522;7.388;2022-12-11T16:32:00;20.47;;;13.50;;
10554;SDS011;5326;51.522;7.388;2022-12-11T16:34:27;20.57;;;13.60;;
10554;SDS011;5326;51.522;7.388;2022-12-11T16:36:57;24.63;;;15.17;;
10554;SDS011;5326;51.522;7.388;2022-12-11T16:39:24;22.27;;;15.27;;